London Mills, Illinois
Current Conditions -  °F | °C
As of 10:35 AM on Sunday 21 Dec 2014 (Local Time) from KGBG Reporting Station
Overcast Overcast  
Wind Chill: 30°   Ceiling: 2500
Heat Index: 37°   Visibility: 7mi
Dew Point: 34°   Wind: 10mph
Humidity: 88%   Direction: 160°SSE
Pressure: 30.12"   Gusts: 17mph
Location:  40.71°N, 90.27°W
Report Text: KGBG 211635Z AUTO 16009G15KT 7SM OVC025 03/01 A3012 RMK AO2 T00300012
Loading
Personal Weather Stations






























Interactive Weather Map New forecast layout! Learn more

10-Day Weather Forecast

Advertisements
Track Severe Weather on mobile